Time;durP1;ratioP1;P1;durP2;ratioP2;P2;SDS_P1;SDS_P2;PMS_P1;PMS_P2;Temp;Humidity;BMP_temperature;BMP_pressure;BME280_temperature;BME280_humidity;BME280_pressure;Samples;Min_cycle;Max_cycle;Signal;HPM_P1;HPM_P2
2023/07/05 00:01:02;;;;;;;;;;;;;;;17.51;100.00;95374.56;10434839;28;2143;-71
2023/07/05 00:06:05;;;;;;;;;;;;;;;17.75;100.00;95365.81;10436484;28;2353;-72
2023/07/05 00:11:08;;;;;;;;;;;;;;;17.87;100.00;95370.53;10434211;28;2136;-73
2023/07/05 00:16:11;;;;;;;;;;;;;;;17.83;100.00;95371.22;10435140;28;1925;-74
2023/07/05 00:21:13;;;;;;;;;;;;;;;17.65;100.00;95369.69;10434395;28;2043;-72
2023/07/05 00:26:16;;;;;;;;;;;;;;;17.47;100.00;95363.53;10436038;28;1950;-72
2023/07/05 00:31:19;;;;;;;;;;;;;;;17.56;100.00;95363.50;10436165;28;2380;-71
2023/07/05 00:36:21;;;;;;;;;;;;;;;17.46;100.00;95372.81;10434896;28;2040;-72
2023/07/05 00:41:24;;;;;;;;;;;;;;;17.42;100.00;95368.34;10436449;28;4496;-71
2023/07/05 00:46:27;;;;;;;;;;;;;;;17.29;100.00;95351.94;10433179;28;1908;-70
2023/07/05 00:51:30;;;;;;;;;;;;;;;17.24;100.00;95354.03;10427198;28;2157;-71
2023/07/05 00:56:32;;;;;;;;;;;;;;;17.33;100.00;95357.53;10432796;28;2274;-72
2023/07/05 01:01:35;;;;;;;;;;;;;;;17.42;100.00;95354.75;10431902;28;2162;-72
2023/07/05 01:06:58;;;;;;;;;;;;;;;17.20;100.00;95366.69;10430722;28;2144;-73
2023/07/05 01:12:00;;;;;;;;;;;;;;;17.32;100.00;95361.38;10432271;28;1979;-72
2023/07/05 01:17:03;;;;;;;;;;;;;;;17.40;100.00;95365.97;10430449;28;2014;-72
2023/07/05 01:22:06;;;;;;;;;;;;;;;17.71;100.00;95370.28;10431006;28;2054;-72
2023/07/05 01:27:08;;;;;;;;;;;;;;;17.58;100.00;95442.00;10431504;28;2239;-71
2023/07/05 01:32:11;;;;;;;;;;;;;;;17.41;100.00;95419.19;10431296;28;2020;-71
2023/07/05 01:37:13;;;;;;;;;;;;;;;17.16;100.00;95426.28;10432733;28;2062;-71
2023/07/05 01:42:15;;;;;;;;;;;;;;;17.15;100.00;95413.84;10432136;28;4414;-71
2023/07/05 01:47:18;;;;;;;;;;;;;;;16.84;100.00;95421.41;10430995;28;2016;-71
2023/07/05 01:52:21;;;;;;;;;;;;;;;16.88;100.00;95434.03;10430504;28;2415;-73
2023/07/05 01:57:24;;;;;;;;;;;;;;;16.72;100.00;95405.78;10430338;28;1999;-71
2023/07/05 02:02:26;;;;;;;;;;;;;;;16.61;100.00;95399.88;10430075;28;1987;-71
2023/07/05 02:07:29;;;;;;;;;;;;;;;16.57;100.00;95401.63;10429603;28;2063;-71
2023/07/05 02:12:31;;;;;;;;;;;;;;;16.49;100.00;95388.84;10429244;28;2032;-71
2023/07/05 02:17:33;;;;;;;;;;;;;;;16.20;100.00;95376.72;10428423;28;2160;-71
2023/07/05 02:22:36;;;;;;;;;;;;;;;16.06;100.00;95375.28;10428623;28;2113;-71
2023/07/05 02:27:38;;;;;;;;;;;;;;;16.00;100.00;95374.63;10429608;28;2166;-71
2023/07/05 02:32:41;;;;;;;;;;;;;;;16.00;100.00;95355.66;10429868;28;2348;-71
2023/07/05 02:37:43;;;;;;;;;;;;;;;15.91;100.00;95354.88;10430655;28;2111;-71
2023/07/05 02:42:46;;;;;;;;;;;;;;;15.82;100.00;95348.63;10431353;28;4563;-71
2023/07/05 02:47:48;;;;;;;;;;;;;;;15.82;100.00;95351.34;10428121;28;2123;-72
2023/07/05 02:52:51;;;;;;;;;;;;;;;15.77;100.00;95354.19;10431329;28;2064;-72
2023/07/05 02:57:54;;;;;;;;;;;;;;;15.88;100.00;95358.19;10438400;28;2000;-72
2023/07/05 03:02:57;;;;;;;;;;;;;;;15.82;100.00;95354.03;10438574;28;2230;-71
2023/07/05 03:07:59;;;;;;;;;;;;;;;15.86;100.00;95349.59;10436673;28;2369;-72
2023/07/05 03:13:02;;;;;;;;;;;;;;;15.80;100.00;95348.16;10436956;28;2005;-71
2023/07/05 03:18:04;;;;;;;;;;;;;;;15.84;100.00;95354.50;10436534;28;2013;-73
2023/07/05 03:23:06;;;;;;;;;;;;;;;15.95;100.00;95348.47;10435807;28;2096;-71
2023/07/05 03:28:09;;;;;;;;;;;;;;;16.13;100.00;95352.00;10434347;28;2034;-71
2023/07/05 03:33:11;;;;;;;;;;;;;;;16.27;100.00;95342.91;10438426;28;2094;-71
2023/07/05 03:38:14;;;;;;;;;;;;;;;16.46;100.00;95341.44;10437045;28;1975;-71
2023/07/05 03:43:17;;;;;;;;;;;;;;;16.56;100.00;95332.19;10438901;28;4525;-71
2023/07/05 03:48:19;;;;;;;;;;;;;;;16.72;100.00;95344.16;10433214;28;2144;-72
2023/07/05 03:53:22;;;;;;;;;;;;;;;16.97;100.00;95347.91;10436279;28;1963;-74
2023/07/05 03:58:24;;;;;;;;;;;;;;;16.96;100.00;95340.09;10435538;28;2102;-71
2023/07/05 04:03:26;;;;;;;;;;;;;;;16.83;100.00;95347.31;10436012;28;2158;-71
2023/07/05 04:08:29;;;;;;;;;;;;;;;17.01;100.00;95334.50;10433334;28;1967;-71
2023/07/05 04:13:32;;;;;;;;;;;;;;;17.28;100.00;95334.06;10433933;28;2014;-71
2023/07/05 04:18:34;;;;;;;;;;;;;;;17.66;100.00;95329.72;10433862;28;2353;-73
2023/07/05 04:23:37;;;;;;;;;;;;;;;18.19;100.00;95339.91;10435476;28;2064;-72
2023/07/05 04:28:39;;;;;;;;;;;;;;;18.53;100.00;95321.72;10433919;28;2233;-71
2023/07/05 04:33:42;;;;;;;;;;;;;;;18.74;100.00;95330.63;10434804;28;2152;-72
2023/07/05 04:38:45;;;;;;;;;;;;;;;19.11;100.00;95326.06;10431198;28;2419;-69
2023/07/05 04:43:47;;;;;;;;;;;;;;;19.12;100.00;95333.09;10436827;28;4412;-71
2023/07/05 04:48:49;;;;;;;;;;;;;;;19.48;100.00;95333.50;10434954;28;2120;-70
2023/07/05 04:53:52;;;;;;;;;;;;;;;19.65;100.00;95334.06;10433324;28;2035;-71
2023/07/05 04:58:55;;;;;;;;;;;;;;;20.03;100.00;95326.63;10432033;28;1993;-70
2023/07/05 05:03:57;;;;;;;;;;;;;;;20.52;100.00;95335.47;10435269;28;2074;-71
2023/07/05 05:08:59;;;;;;;;;;;;;;;21.29;100.00;95341.47;10432101;28;2124;-70
2023/07/05 05:14:02;;;;;;;;;;;;;;;21.72;100.00;95344.44;10435067;28;2616;-70
2023/07/05 05:19:04;;;;;;;;;;;;;;;22.01;100.00;95363.13;10431779;28;2259;-70
2023/07/05 05:24:07;;;;;;;;;;;;;;;22.20;100.00;95392.47;10431659;28;2001;-71
2023/07/05 05:29:10;;;;;;;;;;;;;;;21.04;100.00;95474.69;10431808;28;2042;-71
2023/07/05 05:34:13;;;;;;;;;;;;;;;20.00;100.00;95469.19;10435492;28;2095;-72
2023/07/05 05:39:16;;;;;;;;;;;;;;;19.77;100.00;95490.63;10435254;28;2122;-70
2023/07/05 05:44:19;;;;;;;;;;;;;;;19.57;100.00;95490.34;10431739;28;4485;-71
2023/07/05 05:49:21;;;;;;;;;;;;;;;19.51;100.00;95490.91;10432136;28;2148;-69
2023/07/05 05:54:24;;;;;;;;;;;;;;;19.71;100.00;95479.94;10435016;28;1991;-71
2023/07/05 05:59:26;;;;;;;;;;;;;;;19.90;100.00;95479.38;10429401;28;2038;-71
2023/07/05 06:04:29;;;;;;;;;;;;;;;20.83;100.00;95462.38;10430827;28;2030;-71
2023/07/05 06:09:31;;;;;;;;;;;;;;;21.04;100.00;95469.22;10428929;28;2328;-72
2023/07/05 06:14:34;;;;;;;;;;;;;;;21.27;100.00;95474.16;10430131;28;1983;-71
2023/07/05 06:19:36;;;;;;;;;;;;;;;20.65;100.00;95481.75;10428304;28;1936;-71
2023/07/05 06:24:42;;;;;;;;;;;;;;;20.28;100.00;95469.28;10432507;28;1950;-73
2023/07/05 06:29:44;;;;;;;;;;;;;;;20.04;100.00;95470.06;10430998;28;1894;-72
2023/07/05 06:34:47;;;;;;;;;;;;;;;19.91;100.00;95478.28;10429882;28;1938;-72
2023/07/05 06:39:49;;;;;;;;;;;;;;;20.08;100.00;95481.91;10426229;28;2078;-74
2023/07/05 06:44:51;;;;;;;;;;;;;;;20.10;100.00;95479.63;10428804;28;4684;-71
2023/07/05 06:49:54;;;;;;;;;;;;;;;20.04;100.00;95495.44;10418762;28;1955;-72
2023/07/05 06:54:56;;;;;;;;;;;;;;;19.62;100.00;95497.56;10421452;28;1901;-71
2023/07/05 06:59:59;;;;;;;;;;;;;;;19.98;100.00;95500.34;10420431;28;1944;-73
2023/07/05 07:05:01;;;;;;;;;;;;;;;20.83;100.00;95506.88;10421114;28;2394;-72
2023/07/05 07:10:04;;;;;;;;;;;;;;;21.05;100.00;95509.06;10417997;28;1997;-72
2023/07/05 07:15:06;;;;;;;;;;;;;;;20.94;100.00;95518.91;10419561;28;1897;-73
2023/07/05 07:20:09;;;;;;;;;;;;;;;21.42;100.00;95528.09;10418316;28;2009;-72
2023/07/05 07:25:11;;;;;;;;;;;;;;;21.17;100.00;95538.31;10418061;28;2022;-71
2023/07/05 07:30:14;;;;;;;;;;;;;;;21.62;100.00;95528.22;10420094;28;1977;-73
2023/07/05 07:35:16;;;;;;;;;;;;;;;22.60;100.00;95531.91;10420510;28;1971;-72
2023/07/05 07:40:19;;;;;;;;;;;;;;;23.82;100.00;95524.25;10421669;28;2209;-72
2023/07/05 07:45:21;;;;;;;;;;;;;;;23.79;100.00;95510.47;10428225;28;4343;-70
2023/07/05 07:50:24;;;;;;;;;;;;;;;23.87;100.00;95504.75;10425147;28;1889;-72
2023/07/05 07:55:27;;;;;;;;;;;;;;;23.63;100.00;95500.41;10426543;28;1936;-71
2023/07/05 08:00:29;;;;;;;;;;;;;;;22.79;100.00;95489.25;10424129;28;1900;-72
2023/07/05 08:05:32;;;;;;;;;;;;;;;23.55;100.00;95487.69;10425120;28;2162;-72
2023/07/05 08:10:34;;;;;;;;;;;;;;;24.11;100.00;95486.31;10423407;28;1881;-71
2023/07/05 08:15:37;;;;;;;;;;;;;;;25.05;100.00;95476.34;10425936;28;1893;-70
2023/07/05 08:20:40;;;;;;;;;;;;;;;26.07;96.99;95477.84;10425394;28;2040;-73
2023/07/05 08:25:43;;;;;;;;;;;;;;;25.44;100.00;95473.25;10426908;28;2090;-73
2023/07/05 08:30:46;;;;;;;;;;;;;;;25.25;100.00;95477.78;10428401;28;1961;-72
2023/07/05 08:35:48;;;;;;;;;;;;;;;25.69;99.18;95482.56;10426404;28;1964;-75
2023/07/05 08:40:51;;;;;;;;;;;;;;;26.37;92.96;95481.25;10426564;28;1938;-76
2023/07/05 08:45:55;;;;;;;;;;;;;;;25.64;96.73;95482.13;10425571;28;4506;-77
2023/07/05 08:50:58;;;;;;;;;;;;;;;24.99;99.81;95477.81;10432003;28;2030;-76
2023/07/05 08:56:15;;;;;;;;;;;;;;;24.93;99.02;95471.06;10433024;28;2013;-76
2023/07/05 09:01:18;;;;;;;;;;;;;;;24.90;100.00;95471.81;10435206;28;2573;-75
2023/07/05 09:06:21;;;;;;;;;;;;;;;25.17;97.79;95462.34;10435295;28;1945;-75
2023/07/05 09:11:25;;;;;;;;;;;;;;;26.00;86.62;95450.25;10433548;28;1913;-76
2023/07/05 09:16:27;;;;;;;;;;;;;;;25.60;86.17;95460.09;10432898;28;2015;-75
2023/07/05 09:21:30;;;;;;;;;;;;;;;25.36;86.45;95455.09;10433380;28;1952;-75
2023/07/05 09:26:32;;;;;;;;;;;;;;;25.61;88.25;95461.66;10432542;28;2022;-76
2023/07/05 09:31:35;;;;;;;;;;;;;;;26.61;80.10;95448.75;10433345;28;1909;-77
2023/07/05 09:36:38;;;;;;;;;;;;;;;27.10;74.64;95451.03;10433118;28;2026;-76
2023/07/05 09:41:40;;;;;;;;;;;;;;;25.74;80.18;95452.00;10436770;28;4580;-76
2023/07/05 09:46:43;;;;;;;;;;;;;;;25.46;91.04;95446.19;10431982;28;1984;-76
2023/07/05 09:51:46;;;;;;;;;;;;;;;25.89;89.59;95450.16;10431711;28;1901;-75
2023/07/05 09:56:49;;;;;;;;;;;;;;;25.70;91.87;95448.38;10432393;28;1912;-75
2023/07/05 10:01:53;;;;;;;;;;;;;;;25.01;94.11;95451.53;10431322;28;2083;-75
2023/07/05 10:06:55;;;;;;;;;;;;;;;25.41;95.11;95461.06;10430974;28;2027;-76
2023/07/05 10:11:59;;;;;;;;;;;;;;;24.79;98.81;95453.22;10430321;28;1994;-76
2023/07/05 10:17:01;;;;;;;;;;;;;;;25.47;100.00;95450.50;10429481;28;2058;-76
2023/07/05 10:22:07;;;;;;;;;;;;;;;26.58;91.79;95452.28;10431425;28;2031;-77
2023/07/05 10:27:09;;;;;;;;;;;;;;;25.98;90.69;95455.34;10429915;28;2020;-76
2023/07/05 10:32:14;;;;;;;;;;;;;;;26.05;93.52;95453.44;10434220;28;1944;-75
2023/07/05 10:37:16;;;;;;;;;;;;;;;25.87;97.57;95458.00;10432350;28;1901;-76
2023/07/05 10:42:19;;;;;;;;;;;;;;;24.95;100.00;95466.00;10434043;28;4446;-77
2023/07/05 10:47:22;;;;;;;;;;;;;;;24.27;100.00;95468.53;10429541;28;1973;-76
2023/07/05 10:52:24;;;;;;;;;;;;;;;23.59;100.00;95488.53;10428592;28;3090;-77
2023/07/05 10:57:27;;;;;;;;;;;;;;;21.76;100.00;95539.56;10429865;28;2125;-76
2023/07/05 11:02:29;;;;;;;;;;;;;;;19.59;100.00;95552.72;10427435;28;2033;-76
2023/07/05 11:07:32;;;;;;;;;;;;;;;19.19;100.00;95550.53;10428384;28;1987;-75
2023/07/05 11:12:34;;;;;;;;;;;;;;;19.67;100.00;95554.59;10428024;28;1987;-76
2023/07/05 11:17:36;;;;;;;;;;;;;;;20.59;100.00;95536.97;10435864;28;1966;-76
2023/07/05 11:22:39;;;;;;;;;;;;;;;21.94;100.00;95512.66;10436144;28;2065;-77
2023/07/05 11:27:41;;;;;;;;;;;;;;;22.53;100.00;95493.38;10436412;28;1981;-76
2023/07/05 11:32:44;;;;;;;;;;;;;;;21.46;100.00;95515.31;10437262;28;1885;-76
2023/07/05 11:37:46;;;;;;;;;;;;;;;20.45;100.00;95559.16;10436515;28;1913;-75
2023/07/05 11:42:49;;;;;;;;;;;;;;;18.66;100.00;95568.34;10434020;28;4486;-77
2023/07/05 11:47:51;;;;;;;;;;;;;;;18.61;100.00;95553.00;10441909;28;2261;-77
2023/07/05 11:52:55;;;;;;;;;;;;;;;19.43;100.00;95538.94;10434237;28;1995;-77
2023/07/05 11:57:58;;;;;;;;;;;;;;;19.85;100.00;95527.91;10437288;28;1908;-75
2023/07/05 12:03:01;;;;;;;;;;;;;;;19.69;100.00;95546.88;10435350;28;1916;-75
2023/07/05 12:08:04;;;;;;;;;;;;;;;19.20;100.00;95535.75;10436558;28;1992;-74
2023/07/05 12:13:07;;;;;;;;;;;;;;;18.83;100.00;95535.59;10435185;28;1946;-74
2023/07/05 12:18:10;;;;;;;;;;;;;;;19.19;100.00;95545.06;10435389;28;1927;-77
2023/07/05 12:23:13;;;;;;;;;;;;;;;19.77;100.00;95543.25;10436943;28;1941;-76
2023/07/05 12:28:16;;;;;;;;;;;;;;;19.86;100.00;95541.22;10435193;28;1918;-77
2023/07/05 12:33:18;;;;;;;;;;;;;;;20.16;100.00;95555.47;10427956;28;1905;-77
2023/07/05 12:38:21;;;;;;;;;;;;;;;21.05;100.00;95561.00;10428390;28;1953;-77
2023/07/05 12:43:23;;;;;;;;;;;;;;;21.92;100.00;95556.78;10431656;28;2165;-73
2023/07/05 12:48:28;;;;;;;;;;;;;;;22.02;100.00;95556.28;10426590;28;1914;-76
2023/07/05 12:53:31;;;;;;;;;;;;;;;21.43;100.00;95578.09;10426370;28;1889;-76
2023/07/05 12:58:33;;;;;;;;;;;;;;;21.22;100.00;95584.53;10428368;28;1932;-74
2023/07/05 13:03:36;;;;;;;;;;;;;;;21.45;100.00;95579.38;10427344;28;1912;-75
2023/07/05 13:08:41;;;;;;;;;;;;;;;21.27;100.00;95580.75;10425112;28;1979;-75
2023/07/05 13:13:43;;;;;;;;;;;;;;;21.30;100.00;95571.88;10423375;28;1982;-76
2023/07/05 13:18:46;;;;;;;;;;;;;;;21.43;100.00;95565.22;10427029;28;1996;-74
2023/07/05 13:23:49;;;;;;;;;;;;;;;20.77;100.00;95579.28;10428054;28;1904;-77
2023/07/05 13:28:53;;;;;;;;;;;;;;;21.03;100.00;95596.06;10426079;28;1935;-75
2023/07/05 13:33:55;;;;;;;;;;;;;;;20.83;100.00;95593.50;10429037;28;1992;-75
2023/07/05 13:38:58;;;;;;;;;;;;;;;20.95;100.00;95593.47;10430120;28;2263;-75
2023/07/05 13:44:00;;;;;;;;;;;;;;;20.29;100.00;95597.22;10426346;28;1916;-75
2023/07/05 13:49:03;;;;;;;;;;;;;;;20.39;100.00;95606.91;10423748;28;2025;-76
2023/07/05 13:54:05;;;;;;;;;;;;;;;21.12;100.00;95589.66;10423577;28;2163;-75
2023/07/05 13:59:08;;;;;;;;;;;;;;;21.13;100.00;95591.28;10422433;28;1942;-75
2023/07/05 14:04:11;;;;;;;;;;;;;;;21.80;100.00;95565.06;10422939;28;1901;-75
2023/07/05 14:09:14;;;;;;;;;;;;;;;22.41;100.00;95564.69;10423958;28;1989;-75
2023/07/05 14:14:16;;;;;;;;;;;;;;;23.25;100.00;95555.25;10421529;28;2054;-74
2023/07/05 14:19:20;;;;;;;;;;;;;;;23.25;100.00;95561.53;10419807;28;1996;-74
2023/07/05 14:24:23;;;;;;;;;;;;;;;22.41;100.00;95559.22;10424700;28;1946;-76
2023/07/05 14:29:27;;;;;;;;;;;;;;;22.10;100.00;95562.75;10421811;28;1961;-76
2023/07/05 14:34:30;;;;;;;;;;;;;;;22.28;100.00;95558.53;10422845;28;2357;-73
2023/07/05 14:39:32;;;;;;;;;;;;;;;22.99;100.00;95561.38;10420583;28;1887;-76
2023/07/05 14:44:34;;;;;;;;;;;;;;;23.21;100.00;95555.16;10420283;28;4563;-76
2023/07/05 14:49:38;;;;;;;;;;;;;;;23.25;100.00;95553.31;10419047;28;2001;-75
2023/07/05 14:54:40;;;;;;;;;;;;;;;24.11;100.00;95558.53;10420824;28;1975;-74
2023/07/05 14:59:43;;;;;;;;;;;;;;;25.27;100.00;95551.69;10422288;28;2139;-75
2023/07/05 15:04:46;;;;;;;;;;;;;;;25.52;100.00;95544.53;10424473;28;2007;-76
2023/07/05 15:09:49;;;;;;;;;;;;;;;25.50;100.00;95548.81;10421301;28;1925;-77
2023/07/05 15:14:51;;;;;;;;;;;;;;;25.63;100.00;95546.59;10418323;28;1963;-75
2023/07/05 15:19:54;;;;;;;;;;;;;;;25.45;100.00;95535.38;10418533;28;1927;-76
2023/07/05 15:24:56;;;;;;;;;;;;;;;25.64;100.00;95546.25;10420295;28;1940;-77
2023/07/05 15:30:01;;;;;;;;;;;;;;;24.64;100.00;95547.63;10424442;28;1881;-78
2023/07/05 15:35:04;;;;;;;;;;;;;;;24.49;100.00;95543.88;10423445;28;2389;-76
2023/07/05 15:40:07;;;;;;;;;;;;;;;24.79;100.00;95541.19;10421761;28;1901;-76
2023/07/05 15:45:09;;;;;;;;;;;;;;;24.85;100.00;95540.88;10423692;28;4391;-76
2023/07/05 15:50:12;;;;;;;;;;;;;;;24.56;100.00;95536.88;10423546;28;1920;-77
2023/07/05 15:55:14;;;;;;;;;;;;;;;24.49;100.00;95534.81;10419235;28;1946;-76
2023/07/05 16:00:22;;;;;;;;;;;;;;;23.98;100.00;95530.44;10420575;28;2017;-76
2023/07/05 16:05:27;;;;;;;;;;;;;;;23.52;100.00;95540.53;10430952;28;1971;-74
2023/07/05 16:10:30;;;;;;;;;;;;;;;23.12;100.00;95538.94;10427868;28;1938;-75
2023/07/05 16:15:34;;;;;;;;;;;;;;;23.31;100.00;95531.88;10424738;28;2062;-76
2023/07/05 16:20:36;;;;;;;;;;;;;;;22.99;100.00;95532.00;10426023;28;1912;-76
2023/07/05 16:25:39;;;;;;;;;;;;;;;23.92;100.00;95544.81;10428400;28;1984;-76
2023/07/05 16:30:42;;;;;;;;;;;;;;;23.93;100.00;95549.16;10430911;28;2247;-77
2023/07/05 16:35:44;;;;;;;;;;;;;;;23.96;100.00;95540.19;10428350;28;1912;-76
2023/07/05 16:40:47;;;;;;;;;;;;;;;23.09;100.00;95534.16;10428126;28;1901;-75
2023/07/05 16:45:50;;;;;;;;;;;;;;;22.66;100.00;95527.72;10432104;28;4469;-76
2023/07/05 16:50:52;;;;;;;;;;;;;;;22.39;100.00;95531.38;10428645;28;1965;-75
2023/07/05 16:55:56;;;;;;;;;;;;;;;22.24;100.00;95529.47;10427231;28;1926;-76
2023/07/05 17:01:00;;;;;;;;;;;;;;;21.92;100.00;95532.16;10427207;28;1949;-83
2023/07/05 17:06:03;;;;;;;;;;;;;;;21.95;100.00;95522.44;10424180;28;2294;-73
2023/07/05 17:11:06;;;;;;;;;;;;;;;21.90;100.00;95523.50;10425526;28;1968;-76
2023/07/05 17:16:08;;;;;;;;;;;;;;;21.85;100.00;95529.25;10433284;28;1868;-77
2023/07/05 17:21:11;;;;;;;;;;;;;;;21.85;100.00;95521.03;10435135;28;1958;-76
2023/07/05 17:26:13;;;;;;;;;;;;;;;21.95;100.00;95528.72;10435250;28;2779;-76
2023/07/05 17:31:16;;;;;;;;;;;;;;;21.86;100.00;95539.03;10436941;28;1889;-76
2023/07/05 17:36:20;;;;;;;;;;;;;;;21.75;100.00;95546.97;10433131;28;1913;-75
2023/07/05 17:41:24;;;;;;;;;;;;;;;21.48;100.00;95543.09;10434636;28;4585;-76
2023/07/05 17:46:27;;;;;;;;;;;;;;;21.41;100.00;95534.72;10430188;28;1982;-74
2023/07/05 17:51:29;;;;;;;;;;;;;;;21.22;100.00;95545.47;10431006;28;2016;-75
2023/07/05 17:56:33;;;;;;;;;;;;;;;21.21;100.00;95538.41;10427832;28;1916;-76
2023/07/05 18:01:36;;;;;;;;;;;;;;;21.18;100.00;95541.81;10431084;28;1991;-75
2023/07/05 18:06:39;;;;;;;;;;;;;;;21.23;100.00;95544.31;10429364;28;2092;-76
2023/07/05 18:11:41;;;;;;;;;;;;;;;21.22;100.00;95542.72;10430007;28;1908;-76
2023/07/05 18:16:44;;;;;;;;;;;;;;;21.20;100.00;95562.22;10430072;28;1925;-77
2023/07/05 18:21:46;;;;;;;;;;;;;;;21.07;100.00;95566.13;10429793;28;2381;-75
2023/07/05 18:26:49;;;;;;;;;;;;;;;20.80;100.00;95567.66;10432004;28;1995;-75
2023/07/05 18:31:51;;;;;;;;;;;;;;;20.50;100.00;95570.66;10433232;28;1967;-75
2023/07/05 18:36:54;;;;;;;;;;;;;;;20.24;100.00;95572.88;10430495;28;2076;-75
2023/07/05 18:41:56;;;;;;;;;;;;;;;20.12;100.00;95578.34;10432608;28;4633;-75
2023/07/05 18:46:59;;;;;;;;;;;;;;;19.95;100.00;95582.03;10431979;28;1974;-74
2023/07/05 18:52:01;;;;;;;;;;;;;;;19.83;100.00;95590.19;10428153;28;1981;-75
2023/07/05 18:57:05;;;;;;;;;;;;;;;19.67;100.00;95603.69;10430605;28;2511;-77
2023/07/05 19:02:07;;;;;;;;;;;;;;;19.61;100.00;95605.81;10428813;28;1969;-77
2023/07/05 19:07:10;;;;;;;;;;;;;;;19.46;100.00;95614.56;10427475;28;1999;-74
2023/07/05 19:12:13;;;;;;;;;;;;;;;19.45;100.00;95619.22;10428582;28;1908;-75
2023/07/05 19:17:15;;;;;;;;;;;;;;;19.53;100.00;95625.75;10424274;28;2049;-76
2023/07/05 19:22:17;;;;;;;;;;;;;;;19.44;100.00;95639.44;10424251;28;1921;-74
2023/07/05 19:27:20;;;;;;;;;;;;;;;19.28;100.00;95651.28;10428714;28;1914;-78
2023/07/05 19:32:23;;;;;;;;;;;;;;;19.07;100.00;95662.94;10434359;28;1877;-74
2023/07/05 19:37:26;;;;;;;;;;;;;;;19.00;100.00;95667.31;10434594;28;1936;-74
2023/07/05 19:42:28;;;;;;;;;;;;;;;19.03;100.00;95677.59;10441848;28;4533;-76
2023/07/05 19:47:31;;;;;;;;;;;;;;;18.95;100.00;95695.53;10436668;28;1968;-76
2023/07/05 19:52:33;;;;;;;;;;;;;;;18.96;100.00;95699.88;10437334;28;1964;-76
2023/07/05 19:57:36;;;;;;;;;;;;;;;18.94;100.00;95701.31;10432732;28;1933;-75
2023/07/05 20:02:38;;;;;;;;;;;;;;;18.96;100.00;95699.06;10437374;28;2116;-76
2023/07/05 20:07:41;;;;;;;;;;;;;;;18.93;100.00;95705.97;10434325;28;1989;-74
2023/07/05 20:12:44;;;;;;;;;;;;;;;18.96;100.00;95712.69;10431605;28;2247;-74
2023/07/05 20:17:47;;;;;;;;;;;;;;;19.00;100.00;95711.72;10431266;28;1932;-75
2023/07/05 20:22:50;;;;;;;;;;;;;;;18.94;100.00;95715.75;10432417;28;1941;-74
2023/07/05 20:27:53;;;;;;;;;;;;;;;18.83;100.00;95739.84;10432178;28;1977;-74
2023/07/05 20:32:56;;;;;;;;;;;;;;;18.81;100.00;95728.47;10428700;28;1920;-73
2023/07/05 20:37:59;;;;;;;;;;;;;;;18.82;100.00;95738.22;10432356;28;1993;-74
2023/07/05 20:43:02;;;;;;;;;;;;;;;18.81;100.00;95744.00;10436237;28;4587;-74
2023/07/05 20:48:05;;;;;;;;;;;;;;;18.79;100.00;95749.78;10431248;28;1981;-75
2023/07/05 20:53:07;;;;;;;;;;;;;;;18.78;100.00;95753.63;10434654;28;1968;-74
2023/07/05 20:58:12;;;;;;;;;;;;;;;18.76;100.00;95765.97;10435114;28;2044;-75
2023/07/05 21:03:16;;;;;;;;;;;;;;;18.78;100.00;95771.91;10432248;28;1909;-74
2023/07/05 21:08:19;;;;;;;;;;;;;;;18.71;100.00;95763.44;10425680;28;2198;-75
2023/07/05 21:13:21;;;;;;;;;;;;;;;18.67;100.00;95771.44;10425017;28;1964;-75
2023/07/05 21:18:24;;;;;;;;;;;;;;;18.51;100.00;95776.59;10430627;28;1897;-71
2023/07/05 21:23:27;;;;;;;;;;;;;;;18.44;100.00;95783.63;10430617;28;1941;-72
2023/07/05 21:28:29;;;;;;;;;;;;;;;18.29;100.00;95790.38;10428762;28;1989;-73
2023/07/05 21:33:31;;;;;;;;;;;;;;;18.15;100.00;95796.00;10433300;28;1960;-74
2023/07/05 21:38:35;;;;;;;;;;;;;;;18.11;100.00;95795.03;10433231;28;1877;-71
2023/07/05 21:43:39;;;;;;;;;;;;;;;18.10;100.00;95793.44;10430595;28;4616;-73
2023/07/05 21:48:42;;;;;;;;;;;;;;;17.98;100.00;95790.56;10431787;28;1989;-73
2023/07/05 21:53:45;;;;;;;;;;;;;;;17.86;100.00;95793.13;10429486;28;1979;-72
2023/07/05 21:58:48;;;;;;;;;;;;;;;17.55;100.00;95797.53;10430623;28;1950;-71
2023/07/05 22:03:50;;;;;;;;;;;;;;;17.38;100.00;95802.16;10431746;28;1885;-73
2023/07/05 22:08:52;;;;;;;;;;;;;;;17.17;100.00;95813.56;10430706;28;1977;-73
2023/07/05 22:13:56;;;;;;;;;;;;;;;16.88;100.00;95818.75;10431191;28;1943;-75
2023/07/05 22:19:00;;;;;;;;;;;;;;;16.68;100.00;95830.91;10429453;28;2063;-73
2023/07/05 22:24:02;;;;;;;;;;;;;;;16.44;100.00;95836.66;10430567;28;2056;-73
2023/07/05 22:29:05;;;;;;;;;;;;;;;16.21;100.00;95842.06;10431886;28;1935;-71
2023/07/05 22:34:07;;;;;;;;;;;;;;;16.01;100.00;95844.44;10431301;28;2045;-72
2023/07/05 22:39:10;;;;;;;;;;;;;;;15.80;100.00;95866.59;10429722;28;1996;-72
2023/07/05 22:44:13;;;;;;;;;;;;;;;15.72;100.00;95875.47;10431970;28;4500;-72
2023/07/05 22:49:16;;;;;;;;;;;;;;;15.54;100.00;95869.00;10428138;28;1938;-72
2023/07/05 22:54:18;;;;;;;;;;;;;;;15.45;100.00;95865.41;10430858;28;1909;-72
2023/07/05 22:59:21;;;;;;;;;;;;;;;15.31;100.00;95872.72;10430550;28;2075;-72
2023/07/05 23:04:23;;;;;;;;;;;;;;;15.19;100.00;95873.22;10430921;28;2085;-72
2023/07/05 23:09:26;;;;;;;;;;;;;;;15.07;100.00;95887.25;10428907;28;2052;-71
2023/07/05 23:14:29;;;;;;;;;;;;;;;14.96;100.00;95885.06;10442006;28;1901;-71
2023/07/05 23:19:32;;;;;;;;;;;;;;;14.87;100.00;95871.38;10435947;28;2065;-72
2023/07/05 23:24:35;;;;;;;;;;;;;;;14.79;100.00;95863.97;10439767;28;1947;-73
2023/07/05 23:29:39;;;;;;;;;;;;;;;14.72;100.00;95860.84;10439203;28;1911;-71
2023/07/05 23:34:41;;;;;;;;;;;;;;;14.71;100.00;95859.25;10438142;28;1947;-73
2023/07/05 23:39:45;;;;;;;;;;;;;;;14.65;100.00;95855.03;10438144;28;1888;-72
2023/07/05 23:44:48;;;;;;;;;;;;;;;14.57;100.00;95861.91;10435968;28;4540;-74
2023/07/05 23:49:53;;;;;;;;;;;;;;;14.51;100.00;95861.19;10435845;28;2014;-72
2023/07/05 23:54:56;;;;;;;;;;;;;;;14.51;100.00;95858.50;10438599;28;2132;-73
2023/07/05 23:59:59;;;;;;;;;;;;;;;14.51;100.00;95863.91;10436814;28;2035;-74
